createdAt,value
2022-08-07T00:00:24.301Z,59.04
2022-08-07T00:02:51.252Z,58.47
2022-08-07T00:05:20.682Z,58.73
2022-08-07T00:07:50.719Z,59.47
2022-08-07T00:10:31.052Z,59.24
2022-08-07T00:13:02.119Z,58.97
2022-08-07T00:15:46.269Z,59.81
2022-08-07T00:18:23.921Z,59.40
2022-08-07T00:21:03.434Z,59.24
2022-08-07T00:23:36.969Z,59.19
2022-08-07T00:26:18.956Z,58.91
2022-08-07T00:28:57.028Z,59.46
2022-08-07T00:31:37.499Z,59.77
2022-08-07T00:34:05.489Z,60.42
2022-08-07T00:36:35.610Z,60.34
2022-08-07T00:39:05.323Z,60.05
2022-08-07T00:41:45.402Z,59.92
2022-08-07T00:44:20.619Z,59.97
2022-08-07T00:46:47.621Z,60.44
2022-08-07T00:49:24.955Z,60.19
2022-08-07T00:52:00.722Z,60.66
2022-08-07T00:54:27.216Z,60.80
2022-08-07T00:56:56.404Z,61.03
2022-08-07T00:59:32.698Z,60.91
2022-08-07T01:02:03.242Z,60.98
2022-08-07T01:04:34.665Z,61.10
2022-08-07T01:07:06.824Z,60.65
2022-08-07T01:10:04.278Z,61.46
2022-08-07T01:12:28.579Z,61.79
2022-08-07T01:15:01.215Z,61.73
2022-08-07T01:17:29.816Z,61.75
2022-08-07T01:20:05.382Z,61.93
2022-08-07T01:22:33.207Z,61.75
2022-08-07T01:25:00.821Z,61.54
2022-08-07T01:27:32.083Z,61.41
2022-08-07T01:29:59.902Z,61.57
2022-08-07T01:32:27.818Z,61.91
2022-08-07T01:34:55.773Z,62.19
2022-08-07T01:37:24.447Z,62.04
2022-08-07T01:39:52.021Z,62.11
2022-08-07T01:42:37.882Z,62.78
2022-08-07T01:45:10.067Z,62.43
2022-08-07T01:48:20.253Z,62.25
2022-08-07T01:50:32.553Z,62.61
2022-08-07T01:53:08.935Z,62.52
2022-08-07T01:55:44.194Z,63.33
2022-08-07T01:58:29.499Z,63.03
2022-08-07T02:01:10.056Z,62.75
2022-08-07T02:04:07.663Z,62.99
2022-08-07T02:06:35.975Z,63.60
2022-08-07T02:09:05.149Z,63.01
2022-08-07T02:12:03.554Z,62.92
2022-08-07T02:14:35.431Z,63.01
2022-08-07T02:17:03.921Z,63.21
2022-08-07T02:20:07.431Z,63.74
2022-08-07T02:22:25.804Z,63.02
2022-08-07T02:24:54.524Z,63.64
2022-08-07T02:27:23.411Z,63.83
2022-08-07T02:29:54.550Z,64.28
2022-08-07T02:32:23.324Z,64.17
2022-08-07T02:34:52.655Z,64.12
2022-08-07T02:37:20.697Z,63.79
2022-08-07T02:40:01.740Z,63.91
2022-08-07T02:42:36.386Z,63.68
2022-08-07T02:45:07.594Z,63.86
2022-08-07T02:47:52.976Z,64.24
2022-08-07T02:50:20.993Z,64.41
2022-08-07T02:52:55.016Z,64.91
2022-08-07T02:56:02.451Z,64.87
2022-08-07T02:58:22.292Z,65.12
2022-08-07T03:00:57.575Z,64.88
2022-08-07T03:03:42.066Z,65.61
2022-08-07T03:06:26.085Z,65.58
2022-08-07T03:09:03.328Z,65.65
2022-08-07T03:11:32.697Z,65.96
2022-08-07T03:14:02.208Z,66.12
2022-08-07T03:16:30.494Z,66.55
2022-08-07T03:19:00.839Z,65.85
2022-08-07T03:21:28.262Z,65.69
2022-08-07T03:24:20.684Z,65.04
2022-08-07T03:26:53.529Z,65.00
2022-08-07T03:29:36.814Z,65.19
2022-08-07T03:32:08.284Z,65.00
2022-08-07T03:34:39.423Z,64.93
2022-08-07T03:37:14.896Z,65.27
2022-08-07T03:40:15.375Z,65.13
2022-08-07T03:42:36.013Z,65.52
2022-08-07T03:45:05.146Z,65.14
2022-08-07T03:47:48.050Z,65.05
2022-08-07T03:50:22.989Z,65.82
2022-08-07T03:52:52.378Z,65.72
2022-08-07T03:55:19.185Z,66.37
2022-08-07T03:58:34.252Z,66.16
2022-08-07T04:00:35.607Z,66.11
2022-08-07T04:03:04.402Z,65.71
2022-08-07T04:05:40.558Z,66.03
2022-08-07T04:08:16.336Z,66.71
2022-08-07T04:10:54.573Z,65.69
2022-08-07T04:14:10.160Z,66.09
2022-08-07T04:16:31.210Z,65.67
2022-08-07T04:19:03.868Z,66.16
2022-08-07T04:21:38.880Z,66.24
2022-08-07T04:24:10.505Z,66.05
2022-08-07T04:26:58.007Z,65.62
2022-08-07T04:29:24.675Z,65.47
2022-08-07T04:32:03.125Z,65.30
2022-08-07T04:34:39.452Z,65.62
2022-08-07T04:37:07.945Z,65.64
2022-08-07T04:39:47.968Z,65.43
2022-08-07T04:42:16.560Z,65.65
2022-08-07T04:44:54.474Z,65.77
2022-08-07T04:48:00.915Z,65.15
2022-08-07T04:50:45.273Z,66.08
2022-08-07T04:54:01.675Z,66.17
2022-08-07T04:58:16.618Z,66.92
2022-08-07T05:00:14.582Z,66.82
2022-08-07T05:02:23.025Z,66.91
2022-08-07T05:05:11.835Z,67.36
2022-08-07T05:08:02.843Z,66.93
2022-08-07T05:10:35.234Z,67.02
2022-08-07T05:14:52.510Z,66.98
2022-08-07T05:16:10.291Z,66.79
2022-08-07T05:18:45.149Z,67.24
2022-08-07T05:21:14.698Z,67.15
2022-08-07T05:23:47.783Z,66.71
2022-08-07T05:26:23.910Z,66.09
2022-08-07T05:28:53.356Z,65.38
2022-08-07T05:31:35.203Z,65.41
2022-08-07T05:34:05.421Z,65.09
2022-08-07T05:36:40.162Z,65.11
2022-08-07T05:40:06.029Z,64.21
2022-08-07T05:42:01.634Z,63.62
2022-08-07T05:44:33.794Z,63.20
2022-08-07T05:47:01.455Z,63.63
2022-08-07T05:49:40.408Z,63.24
2022-08-07T05:52:11.565Z,63.26
2022-08-07T05:54:44.556Z,62.33
2022-08-07T05:57:26.676Z,63.98
2022-08-07T05:59:58.941Z,63.30
2022-08-07T06:02:30.525Z,62.29
2022-08-07T06:05:03.658Z,61.51
2022-08-07T06:08:30.340Z,61.37
2022-08-07T06:10:18.755Z,62.34
2022-08-07T06:12:47.358Z,61.83
2022-08-07T06:15:16.404Z,61.22
2022-08-07T06:17:53.494Z,61.92
2022-08-07T06:20:25.594Z,62.44
2022-08-07T06:23:02.263Z,61.53
2022-08-07T06:25:54.046Z,60.80
2022-08-07T06:28:28.119Z,61.18
2022-08-07T06:30:56.485Z,60.42
2022-08-07T06:33:25.025Z,59.28
2022-08-07T06:36:11.861Z,61.07
2022-08-07T06:38:38.466Z,60.82
2022-08-07T06:41:12.973Z,60.28
2022-08-07T06:43:46.461Z,60.80
2022-08-07T06:46:31.307Z,59.48
2022-08-07T06:49:03.853Z,59.28
2022-08-07T06:51:33.901Z,60.20
2022-08-07T06:55:29.757Z,59.42
2022-08-07T06:56:51.580Z,58.11
2022-08-07T07:00:12.532Z,57.70
2022-08-07T07:02:53.741Z,59.01
2022-08-07T07:05:12.899Z,58.30
2022-08-07T07:07:59.183Z,57.01
2022-08-07T07:10:31.598Z,57.52
2022-08-07T07:13:55.935Z,54.26
2022-08-07T07:16:14.627Z,57.58
2022-08-07T07:18:52.494Z,57.59
2022-08-07T07:21:27.072Z,57.06
2022-08-07T07:24:12.652Z,56.80
2022-08-07T07:26:49.652Z,55.93
2022-08-07T07:29:40.388Z,55.81
2022-08-07T07:32:13.938Z,55.01
2022-08-07T07:34:44.283Z,55.00
2022-08-07T07:37:22.104Z,54.99
2022-08-07T07:40:10.191Z,54.79
2022-08-07T07:42:47.066Z,53.12
2022-08-07T07:45:22.807Z,53.69
2022-08-07T07:48:12.167Z,52.98
2022-08-07T07:50:54.090Z,51.91
2022-08-07T07:53:25.710Z,51.95
2022-08-07T07:56:00.621Z,52.34
2022-08-07T07:58:40.654Z,51.06
2022-08-07T08:02:03.602Z,51.56
2022-08-07T08:04:06.599Z,51.61
2022-08-07T08:06:39.513Z,51.26
2022-08-07T08:09:08.576Z,51.26
2022-08-07T08:11:59.249Z,51.33
2022-08-07T08:14:26.510Z,50.69
2022-08-07T08:16:54.903Z,49.99
2022-08-07T08:20:17.219Z,49.81
2022-08-07T08:22:33.496Z,49.74
2022-08-07T08:25:42.018Z,49.19
2022-08-07T08:28:16.864Z,49.49
2022-08-07T08:30:55.808Z,48.81
2022-08-07T08:33:25.272Z,48.35
2022-08-07T08:36:00.444Z,48.77
2022-08-07T08:38:40.488Z,49.00
2022-08-07T08:41:57.450Z,47.47
2022-08-07T08:44:41.284Z,47.79
2022-08-07T08:47:25.380Z,46.99
2022-08-07T08:50:10.872Z,47.13
2022-08-07T08:52:54.331Z,46.63
2022-08-07T08:56:02.584Z,45.64
2022-08-07T08:58:54.348Z,46.27
2022-08-07T09:01:40.234Z,45.60
2022-08-07T09:04:25.878Z,45.96
2022-08-07T09:07:06.037Z,45.17
2022-08-07T09:09:56.768Z,44.44
2022-08-07T09:12:53.823Z,44.10
2022-08-07T09:16:25.154Z,43.53
2022-08-07T09:18:53.390Z,43.65
2022-08-07T09:21:58.539Z,43.02
2022-08-07T09:24:58.511Z,42.03
2022-08-07T09:27:54.703Z,42.35
2022-08-07T09:30:33.210Z,41.50
2022-08-07T09:33:40.711Z,41.90
2022-08-07T09:36:16.971Z,40.87
2022-08-07T09:39:54.696Z,40.84
2022-08-07T09:42:23.154Z,41.84
2022-08-07T09:47:23.827Z,41.70
2022-08-07T09:48:11.919Z,42.42
2022-08-07T09:51:14.751Z,41.51
2022-08-07T09:54:00.605Z,41.56
2022-08-07T09:57:06.916Z,41.07
2022-08-07T10:00:04.661Z,39.72
2022-08-07T10:02:56.306Z,39.56
2022-08-07T10:06:00.015Z,40.01
2022-08-07T10:08:35.034Z,40.52
2022-08-07T10:12:01.259Z,39.73
2022-08-07T10:14:39.772Z,40.19
2022-08-07T10:18:01.276Z,38.19
2022-08-07T10:20:57.741Z,38.25
2022-08-07T10:24:05.281Z,38.72
2022-08-07T10:27:06.714Z,40.57
2022-08-07T10:29:53.268Z,39.21
2022-08-07T10:32:53.179Z,39.10
2022-08-07T10:36:05.629Z,38.62
2022-08-07T10:38:57.058Z,38.67
2022-08-07T10:41:51.350Z,39.59
2022-08-07T10:45:02.122Z,37.69
2022-08-07T10:47:55.012Z,37.27
2022-08-07T10:50:26.019Z,39.67
2022-08-07T10:53:09.764Z,35.32
2022-08-07T10:55:44.848Z,33.36
2022-08-07T10:58:40.591Z,32.88
2022-08-07T11:01:22.307Z,33.91
2022-08-07T11:04:16.589Z,35.54
2022-08-07T11:06:57.938Z,35.31
2022-08-07T11:10:09.341Z,36.17
2022-08-07T11:12:32.087Z,34.58
2022-08-07T11:15:04.355Z,32.68
2022-08-07T11:17:56.845Z,35.52
2022-08-07T11:20:49.590Z,33.05
2022-08-07T11:23:48.292Z,33.25
2022-08-07T11:26:28.608Z,33.64
2022-08-07T11:29:13.229Z,34.25
2022-08-07T11:32:05.888Z,32.12
2022-08-07T11:34:55.589Z,31.65
2022-08-07T11:37:58.318Z,31.00
2022-08-07T11:40:49.763Z,32.06
2022-08-07T11:43:41.410Z,32.20
2022-08-07T11:46:46.970Z,31.47
2022-08-07T11:50:30.331Z,29.36
2022-08-07T11:52:55.238Z,30.59
2022-08-07T11:56:08.724Z,33.57
2022-08-07T11:58:50.028Z,31.07
2022-08-07T12:01:58.632Z,29.46
2022-08-07T12:04:43.094Z,32.75
2022-08-07T12:07:27.659Z,31.10
2022-08-07T12:11:08.011Z,31.62
2022-08-07T12:13:47.727Z,30.94
2022-08-07T12:16:30.531Z,30.28
2022-08-07T12:19:14.657Z,30.18
2022-08-07T12:22:37.789Z,31.24
2022-08-07T12:26:21.636Z,30.82
2022-08-07T12:28:15.015Z,30.49
2022-08-07T12:30:46.879Z,32.37
2022-08-07T12:33:30.798Z,32.82
2022-08-07T12:36:11.440Z,31.51
2022-08-07T12:38:43.404Z,32.64
2022-08-07T12:41:15.149Z,31.28
2022-08-07T12:44:01.967Z,31.27
2022-08-07T12:46:34.591Z,30.21
2022-08-07T12:49:40.171Z,31.08
2022-08-07T12:52:14.681Z,30.49
2022-08-07T12:55:05.587Z,33.52
2022-08-07T12:58:01.185Z,32.71
2022-08-07T13:00:50.896Z,32.70
2022-08-07T13:03:54.787Z,31.23
2022-08-07T13:06:21.951Z,32.03
2022-08-07T13:10:20.748Z,31.52
2022-08-07T13:13:11.677Z,30.65
2022-08-07T13:16:07.336Z,30.99
2022-08-07T13:18:49.152Z,32.77
2022-08-07T13:21:51.112Z,34.02
2022-08-07T13:24:35.980Z,31.65
2022-08-07T13:27:15.429Z,29.70
2022-08-07T13:29:56.201Z,30.78
2022-08-07T13:32:53.934Z,35.21
2022-08-07T13:36:00.528Z,32.89
2022-08-07T13:38:29.616Z,31.00
2022-08-07T13:41:04.835Z,32.65
2022-08-07T13:43:43.449Z,30.06
2022-08-07T13:46:28.921Z,30.33
2022-08-07T13:49:02.015Z,28.56
2022-08-07T13:52:22.387Z,26.28
2022-08-07T13:54:23.582Z,27.72
2022-08-07T13:56:59.644Z,28.26
2022-08-07T13:59:31.588Z,27.48
2022-08-07T14:02:10.192Z,27.01
2022-08-07T14:04:56.228Z,31.84
2022-08-07T14:07:33.490Z,30.15
2022-08-07T14:10:17.347Z,28.43
2022-08-07T14:12:55.705Z,29.24
2022-08-07T14:15:37.167Z,32.48
2022-08-07T14:18:28.768Z,33.01
2022-08-07T14:21:08.497Z,32.91
2022-08-07T14:24:02.322Z,30.97
2022-08-07T14:26:54.503Z,29.86
2022-08-07T14:30:05.218Z,31.08
2022-08-07T14:32:15.105Z,29.89
2022-08-07T14:34:47.197Z,30.15
2022-08-07T14:37:17.306Z,30.21
2022-08-07T14:40:15.559Z,30.92
2022-08-07T14:42:35.711Z,30.48
2022-08-07T14:45:25.554Z,29.99
2022-08-07T14:48:19.711Z,28.60
2022-08-07T14:54:05.907Z,30.04
2022-08-07T14:56:30.860Z,29.25
2022-08-07T14:59:14.128Z,33.45
2022-08-07T15:01:52.152Z,30.81
2022-08-07T15:04:21.859Z,29.78
2022-08-07T15:06:53.005Z,29.89
2022-08-07T15:09:58.492Z,29.51
2022-08-07T15:12:25.848Z,28.88
2022-08-07T15:15:21.050Z,31.84
2022-08-07T15:17:56.005Z,28.88
2022-08-07T15:23:20.902Z,27.66
2022-08-07T15:25:54.039Z,27.72
2022-08-07T15:31:13.167Z,26.59
2022-08-07T15:34:01.915Z,27.66
2022-08-07T15:37:04.186Z,29.54
2022-08-07T15:39:17.306Z,30.49
2022-08-07T15:42:44.981Z,27.16
2022-08-07T15:44:52.111Z,28.49
2022-08-07T15:47:59.968Z,28.07
2022-08-07T15:51:01.162Z,30.08
2022-08-07T15:53:52.430Z,29.97
2022-08-07T15:56:16.021Z,27.63
2022-08-07T15:58:58.078Z,27.65
2022-08-07T16:01:39.350Z,29.56
2022-08-07T16:04:15.563Z,28.81
2022-08-07T16:06:54.550Z,28.97
2022-08-07T16:09:22.540Z,30.48
2022-08-07T16:12:12.205Z,31.17
2022-08-07T16:15:04.445Z,29.72
2022-08-07T16:18:00.884Z,27.69
2022-08-07T16:20:56.840Z,28.85
2022-08-07T16:23:59.726Z,30.70
2022-08-07T16:26:32.751Z,28.79
2022-08-07T16:30:11.187Z,28.55
2022-08-07T16:32:32.812Z,25.91
2022-08-07T16:35:51.858Z,27.26
2022-08-07T16:39:02.370Z,28.05
2022-08-07T16:41:54.478Z,29.44
2022-08-07T16:45:31.289Z,26.68
2022-08-07T16:48:28.658Z,27.54
2022-08-07T16:51:51.745Z,27.94
2022-08-07T16:54:33.165Z,28.84
2022-08-07T16:57:15.332Z,29.40
2022-08-07T17:00:04.304Z,29.80
2022-08-07T17:02:53.908Z,26.32
2022-08-07T17:06:19.788Z,26.80
2022-08-07T17:09:14.330Z,26.77
2022-08-07T17:12:03.895Z,24.82
2022-08-07T17:14:49.897Z,25.14
2022-08-07T17:17:44.087Z,25.25
2022-08-07T17:20:22.750Z,24.23
2022-08-07T17:23:35.137Z,25.54
2022-08-07T17:26:22.896Z,24.93
2022-08-07T17:29:04.636Z,24.05
2022-08-07T17:31:43.948Z,23.05
2022-08-07T17:34:34.964Z,23.84
2022-08-07T17:38:05.832Z,23.09
2022-08-07T17:40:10.888Z,23.21
2022-08-07T17:42:59.753Z,22.89
2022-08-07T17:45:35.108Z,22.58
2022-08-07T17:48:30.671Z,25.02
2022-08-07T17:51:49.302Z,25.49
2022-08-07T17:54:54.456Z,28.58
2022-08-07T17:57:56.649Z,31.81
2022-08-07T18:00:32.894Z,32.95
2022-08-07T18:03:17.884Z,34.71
2022-08-07T18:06:03.166Z,35.53
2022-08-07T18:09:01.085Z,36.17
2022-08-07T18:12:07.185Z,38.01
2022-08-07T18:14:45.003Z,39.67
2022-08-07T18:18:46.658Z,38.80
2022-08-07T18:21:02.432Z,40.36
2022-08-07T18:23:43.050Z,38.40
2022-08-07T18:26:15.229Z,38.74
2022-08-07T18:30:06.279Z,40.82
2022-08-07T18:32:22.577Z,39.06
2022-08-07T18:35:15.739Z,40.24
2022-08-07T18:38:55.627Z,40.00
2022-08-07T18:41:05.125Z,39.57
2022-08-07T18:44:05.617Z,39.74
2022-08-07T18:47:11.109Z,39.96
2022-08-07T18:50:31.018Z,41.13
2022-08-07T18:53:13.926Z,42.72
2022-08-07T18:56:12.646Z,40.48
2022-08-07T18:59:00.039Z,40.95
2022-08-07T19:02:19.816Z,41.14
2022-08-07T19:04:59.567Z,41.21
2022-08-07T19:07:52.007Z,41.20
2022-08-07T19:10:49.475Z,41.35
2022-08-07T19:13:27.768Z,41.65
2022-08-07T19:16:05.204Z,42.00
2022-08-07T19:19:03.089Z,43.54
2022-08-07T19:22:04.283Z,43.55
2022-08-07T19:24:48.049Z,43.41
2022-08-07T19:28:58.189Z,42.89
2022-08-07T19:31:01.318Z,43.17
2022-08-07T19:33:10.251Z,44.17
2022-08-07T19:35:42.084Z,43.60
2022-08-07T19:38:15.718Z,43.49
2022-08-07T19:40:50.139Z,45.17
2022-08-07T19:43:44.191Z,45.02
2022-08-07T19:46:26.444Z,45.07
2022-08-07T19:49:06.532Z,44.93
2022-08-07T19:51:52.926Z,45.00
2022-08-07T19:54:34.122Z,45.48
2022-08-07T19:58:03.260Z,45.70
2022-08-07T20:00:10.046Z,45.88
2022-08-07T20:02:51.553Z,45.80
2022-08-07T20:06:00.896Z,46.20
2022-08-07T20:08:27.685Z,46.32
2022-08-07T20:11:01.875Z,46.50
2022-08-07T20:13:41.669Z,47.67
2022-08-07T20:16:31.906Z,48.13
2022-08-07T20:19:04.380Z,48.41
2022-08-07T20:21:41.894Z,48.38
2022-08-07T20:24:28.625Z,48.24
2022-08-07T20:27:01.920Z,48.17
2022-08-07T20:29:48.966Z,48.08
2022-08-07T20:32:43.836Z,48.11
2022-08-07T20:35:26.163Z,48.36
2022-08-07T20:37:59.508Z,48.59
2022-08-07T20:40:37.379Z,48.92
2022-08-07T20:43:14.617Z,49.11
2022-08-07T20:46:27.103Z,49.78
2022-08-07T20:48:42.225Z,50.07
2022-08-07T20:51:29.350Z,50.35
2022-08-07T20:54:07.127Z,50.68
2022-08-07T20:56:41.941Z,50.77
2022-08-07T21:00:04.484Z,50.81
2022-08-07T21:02:33.175Z,50.79
2022-08-07T21:05:04.703Z,50.83
2022-08-07T21:07:38.492Z,51.04
2022-08-07T21:10:11.612Z,51.04
2022-08-07T21:12:39.940Z,51.12
2022-08-07T21:15:18.863Z,51.61
2022-08-07T21:18:28.104Z,52.04
2022-08-07T21:20:38.113Z,52.07
2022-08-07T21:23:18.174Z,52.36
2022-08-07T21:26:03.744Z,52.34
2022-08-07T21:28:49.808Z,52.90
2022-08-07T21:32:42.042Z,52.78
2022-08-07T21:34:49.875Z,53.31
2022-08-07T21:37:58.537Z,53.55
2022-08-07T21:40:41.454Z,53.75
2022-08-07T21:43:23.102Z,54.98
2022-08-07T21:46:08.153Z,54.43
2022-08-07T21:49:14.657Z,55.08
2022-08-07T21:51:54.771Z,55.53
2022-08-07T21:55:01.523Z,54.41
2022-08-07T21:57:44.362Z,55.48
2022-08-07T22:00:22.299Z,55.42
2022-08-07T22:02:59.264Z,55.50
2022-08-07T22:05:45.373Z,55.22
2022-08-07T22:08:18.366Z,55.40
2022-08-07T22:10:49.656Z,56.10
2022-08-07T22:13:23.935Z,56.60
2022-08-07T22:16:41.978Z,55.99
2022-08-07T22:19:23.745Z,56.28
2022-08-07T22:22:05.214Z,56.95
2022-08-07T22:25:15.143Z,56.52
2022-08-07T22:28:20.238Z,58.16
2022-08-07T22:31:05.158Z,57.32
2022-08-07T22:33:56.493Z,57.55
2022-08-07T22:36:46.318Z,57.66
2022-08-07T22:39:26.159Z,57.59
2022-08-07T22:42:19.882Z,58.01
2022-08-07T22:44:58.699Z,58.10
2022-08-07T22:47:49.246Z,58.11
2022-08-07T22:50:39.055Z,57.91
2022-08-07T22:54:07.356Z,58.50
2022-08-07T22:56:32.949Z,58.52
2022-08-07T22:59:20.624Z,58.37
2022-08-07T23:02:07.443Z,58.88
2022-08-07T23:04:58.594Z,59.45
2022-08-07T23:07:42.984Z,58.78
2022-08-07T23:10:37.895Z,58.90
2022-08-07T23:13:17.261Z,58.05
2022-08-07T23:16:06.687Z,59.25
2022-08-07T23:19:06.288Z,59.46
2022-08-07T23:22:02.369Z,59.87
2022-08-07T23:24:45.663Z,61.01
2022-08-07T23:28:22.401Z,61.52
2022-08-07T23:30:43.278Z,60.64
2022-08-07T23:34:34.161Z,61.88
2022-08-07T23:37:20.072Z,60.46
2022-08-07T23:40:14.593Z,61.40
2022-08-07T23:43:16.974Z,61.46
2022-08-07T23:46:02.924Z,61.25
2022-08-07T23:48:49.505Z,61.04
2022-08-07T23:53:05.397Z,61.75
2022-08-07T23:54:44.427Z,61.39
2022-08-07T23:57:25.229Z,62.15
